sensor_id;sensor_type;location;lat;lon;timestamp;pressure;altitude;pressure_sealevel;temperature;humidity
6096;BME280;25081;42.698;23.298;2022-12-22T00:02:18;95526.91;;;-1.23;83.40
6096;BME280;25081;42.698;23.298;2022-12-22T00:04:46;95523.67;;;-1.21;84.00
6096;BME280;25081;42.698;23.298;2022-12-22T00:07:14;95525.13;;;-1.22;83.04
6096;BME280;25081;42.698;23.298;2022-12-22T00:09:42;95525.13;;;-1.22;84.06
6096;BME280;25081;42.698;23.298;2022-12-22T00:12:10;95528.84;;;-1.25;83.97
6096;BME280;25081;42.698;23.298;2022-12-22T00:14:39;95530.20;;;-1.21;84.11
6096;BME280;25081;42.698;23.298;2022-12-22T00:17:11;95529.38;;;-1.21;83.92
6096;BME280;25081;42.698;23.298;2022-12-22T00:19:37;95533.11;;;-1.24;83.18
6096;BME280;25081;42.698;23.298;2022-12-22T00:22:11;95532.77;;;-1.25;83.14
6096;BME280;25081;42.698;23.298;2022-12-22T00:24:37;95533.52;;;-1.28;83.00
6096;BME280;25081;42.698;23.298;2022-12-22T00:27:06;95531.86;;;-1.29;83.45
6096;BME280;25081;42.698;23.298;2022-12-22T00:29:38;95525.61;;;-1.32;83.30
6096;BME280;25081;42.698;23.298;2022-12-22T00:32:04;95529.88;;;-1.31;84.08
6096;BME280;25081;42.698;23.298;2022-12-22T00:34:34;95529.73;;;-1.30;84.16
6096;BME280;25081;42.698;23.298;2022-12-22T00:37:01;95531.38;;;-1.29;83.84
6096;BME280;25081;42.698;23.298;2022-12-22T00:39:29;95527.80;;;-1.28;83.92
6096;BME280;25081;42.698;23.298;2022-12-22T00:41:57;95533.37;;;-1.27;84.00
6096;BME280;25081;42.698;23.298;2022-12-22T00:44:25;95529.45;;;-1.27;83.88
6096;BME280;25081;42.698;23.298;2022-12-22T00:46:53;95521.26;;;-1.28;84.30
6096;BME280;25081;42.698;23.298;2022-12-22T00:49:21;95518.64;;;-1.28;84.08
6096;BME280;25081;42.698;23.298;2022-12-22T00:51:49;95522.38;;;-1.40;83.06
6096;BME280;25081;42.698;23.298;2022-12-22T00:54:17;95523.55;;;-1.38;84.08
6096;BME280;25081;42.698;23.298;2022-12-22T00:56:45;95521.36;;;-1.43;83.86
6096;BME280;25081;42.698;23.298;2022-12-22T00:59:14;95517.09;;;-1.44;84.14
6096;BME280;25081;42.698;23.298;2022-12-22T01:01:42;95518.74;;;-1.43;83.77
6096;BME280;25081;42.698;23.298;2022-12-22T01:04:11;95510.76;;;-1.41;83.61
6096;BME280;25081;42.698;23.298;2022-12-22T01:06:39;95509.52;;;-1.47;82.82
6096;BME280;25081;42.698;23.298;2022-12-22T01:09:09;95509.03;;;-1.47;83.60
6096;BME280;25081;42.698;23.298;2022-12-22T01:11:37;95508.69;;;-1.48;84.84
6096;BME280;25081;42.698;23.298;2022-12-22T01:14:09;95503.89;;;-1.52;84.10
6096;BME280;25081;42.698;23.298;2022-12-22T01:16:37;95504.37;;;-1.53;84.39
6096;BME280;25081;42.698;23.298;2022-12-22T01:19:05;95491.36;;;-1.49;84.43
6096;BME280;25081;42.698;23.298;2022-12-22T01:21:33;95494.11;;;-1.50;83.82
6096;BME280;25081;42.698;23.298;2022-12-22T01:24:04;95489.28;;;-1.45;83.89
6096;BME280;25081;42.698;23.298;2022-12-22T01:26:29;95484.14;;;-1.51;83.56
6096;BME280;25081;42.698;23.298;2022-12-22T01:28:57;95481.25;;;-1.57;83.14
6096;BME280;25081;42.698;23.298;2022-12-22T01:31:29;95487.87;;;-1.63;83.02
6096;BME280;25081;42.698;23.298;2022-12-22T01:33:55;95485.02;;;-1.56;83.76
6096;BME280;25081;42.698;23.298;2022-12-22T01:36:23;95492.03;;;-1.47;84.56
6096;BME280;25081;42.698;23.298;2022-12-22T01:38:51;95486.80;;;-1.47;85.54
6096;BME280;25081;42.698;23.298;2022-12-22T01:41:19;95489.08;;;-1.48;86.17
6096;BME280;25081;42.698;23.298;2022-12-22T01:43:48;95508.63;;;-1.52;85.09
6096;BME280;25081;42.698;23.298;2022-12-22T01:46:24;95488.06;;;-1.51;84.95
6096;BME280;25081;42.698;23.298;2022-12-22T01:48:51;95490.48;;;-1.53;84.85
6096;BME280;25081;42.698;23.298;2022-12-22T01:51:25;95492.38;;;-1.55;86.02
6096;BME280;25081;42.698;23.298;2022-12-22T01:53:47;95487.38;;;-1.53;85.84
6096;BME280;25081;42.698;23.298;2022-12-22T01:56:15;95486.56;;;-1.53;85.51
6096;BME280;25081;42.698;23.298;2022-12-22T01:58:45;95495.48;;;-1.56;86.14
6096;BME280;25081;42.698;23.298;2022-12-22T02:01:13;95504.57;;;-1.60;85.58
6096;BME280;25081;42.698;23.298;2022-12-22T02:03:41;95508.49;;;-1.60;85.67
6096;BME280;25081;42.698;23.298;2022-12-22T02:06:18;95506.36;;;-1.60;85.93
6096;BME280;25081;42.698;23.298;2022-12-22T02:08:47;95492.87;;;-1.65;85.34
6096;BME280;25081;42.698;23.298;2022-12-22T02:11:18;95492.19;;;-1.67;85.04
6096;BME280;25081;42.698;23.298;2022-12-22T02:13:50;95488.41;;;-1.69;85.19
6096;BME280;25081;42.698;23.298;2022-12-22T02:16:17;95489.43;;;-1.76;84.62
6096;BME280;25081;42.698;23.298;2022-12-22T02:18:47;95486.91;;;-1.81;84.60
6096;BME280;25081;42.698;23.298;2022-12-22T02:21:15;95491.50;;;-1.89;84.76
6096;BME280;25081;42.698;23.298;2022-12-22T02:23:54;95488.34;;;-1.92;84.79
6096;BME280;25081;42.698;23.298;2022-12-22T02:26:26;95484.54;;;-1.94;84.45
6096;BME280;25081;42.698;23.298;2022-12-22T02:28:54;95480.77;;;-1.95;84.29
6096;BME280;25081;42.698;23.298;2022-12-22T02:31:22;95483.60;;;-1.93;85.33
6096;BME280;25081;42.698;23.298;2022-12-22T02:33:50;95488.11;;;-1.95;84.53
6096;BME280;25081;42.698;23.298;2022-12-22T02:36:20;95491.89;;;-1.93;84.50
6096;BME280;25081;42.698;23.298;2022-12-22T02:38:48;95483.04;;;-1.87;84.68
6096;BME280;25081;42.698;23.298;2022-12-22T02:41:17;95484.62;;;-1.90;83.98
6096;BME280;25081;42.698;23.298;2022-12-22T02:43:52;95481.44;;;-1.93;83.79
6096;BME280;25081;42.698;23.298;2022-12-22T02:46:20;95484.20;;;-1.95;84.09
6096;BME280;25081;42.698;23.298;2022-12-22T02:48:49;95479.69;;;-1.93;84.80
6096;BME280;25081;42.698;23.298;2022-12-22T02:51:18;95484.20;;;-1.95;84.42
6096;BME280;25081;42.698;23.298;2022-12-22T02:53:45;95478.38;;;-1.93;84.85
6096;BME280;25081;42.698;23.298;2022-12-22T02:56:13;95479.20;;;-1.92;85.63
6096;BME280;25081;42.698;23.298;2022-12-22T02:58:42;95472.77;;;-2.04;84.64
6096;BME280;25081;42.698;23.298;2022-12-22T03:01:10;95477.31;;;-2.06;85.07
6096;BME280;25081;42.698;23.298;2022-12-22T03:03:38;95479.11;;;-2.06;86.36
6096;BME280;25081;42.698;23.298;2022-12-22T03:06:07;95474.56;;;-2.04;86.33
6096;BME280;25081;42.698;23.298;2022-12-22T03:08:35;95477.92;;;-2.17;85.31
6096;BME280;25081;42.698;23.298;2022-12-22T03:11:03;95479.87;;;-2.10;85.84
6096;BME280;25081;42.698;23.298;2022-12-22T03:13:31;95475.19;;;-2.06;86.27
6096;BME280;25081;42.698;23.298;2022-12-22T03:15:59;95478.71;;;-2.02;86.87
6096;BME280;25081;42.698;23.298;2022-12-22T03:18:27;95471.41;;;-2.08;85.14
6096;BME280;25081;42.698;23.298;2022-12-22T03:20:56;95472.91;;;-2.05;85.84
6096;BME280;25081;42.698;23.298;2022-12-22T03:23:24;95474.84;;;-2.07;85.96
6096;BME280;25081;42.698;23.298;2022-12-22T03:25:52;95475.47;;;-2.09;86.39
6096;BME280;25081;42.698;23.298;2022-12-22T03:28:04;95475.19;;;-2.06;86.25
6096;BME280;25081;42.698;23.298;2022-12-22T03:30:14;95476.02;;;-2.06;86.21
6096;BME280;25081;42.698;23.298;2022-12-22T03:32:24;95469.67;;;-2.13;85.41
6096;BME280;25081;42.698;23.298;2022-12-22T03:34:35;95470.86;;;-2.21;85.21
6096;BME280;25081;42.698;23.298;2022-12-22T03:36:45;95468.64;;;-2.16;86.25
6096;BME280;25081;42.698;23.298;2022-12-22T03:38:56;95474.55;;;-2.14;85.74
6096;BME280;25081;42.698;23.298;2022-12-22T03:41:07;95480.69;;;-2.09;85.92
6096;BME280;25081;42.698;23.298;2022-12-22T03:43:17;95478.91;;;-2.09;85.75
6096;BME280;25081;42.698;23.298;2022-12-22T03:45:45;95480.26;;;-2.14;85.77
6096;BME280;25081;42.698;23.298;2022-12-22T03:48:13;95479.91;;;-2.15;85.74
6096;BME280;25081;42.698;23.298;2022-12-22T03:50:24;95478.81;;;-2.13;86.64
6096;BME280;25081;42.698;23.298;2022-12-22T03:52:34;95483.09;;;-2.12;87.05
6096;BME280;25081;42.698;23.298;2022-12-22T03:54:45;95477.88;;;-2.12;86.74
6096;BME280;25081;42.698;23.298;2022-12-22T03:56:55;95482.82;;;-2.09;85.94
6096;BME280;25081;42.698;23.298;2022-12-22T03:59:06;95476.15;;;-2.07;86.52
6096;BME280;25081;42.698;23.298;2022-12-22T04:01:16;95479.78;;;-2.04;86.29
6096;BME280;25081;42.698;23.298;2022-12-22T04:03:27;95475.39;;;-2.04;86.02
6096;BME280;25081;42.698;23.298;2022-12-22T04:05:38;95472.58;;;-2.06;85.96
6096;BME280;25081;42.698;23.298;2022-12-22T04:07:48;95473.48;;;-2.02;85.85
6096;BME280;25081;42.698;23.298;2022-12-22T04:09:59;95473.03;;;-2.26;84.74
6096;BME280;25081;42.698;23.298;2022-12-22T04:12:31;95480.44;;;-2.41;85.68
6096;BME280;25081;42.698;23.298;2022-12-22T04:15:00;95484.69;;;-2.40;86.21
6096;BME280;25081;42.698;23.298;2022-12-22T04:17:10;95465.37;;;-2.33;87.21
6096;BME280;25081;42.698;23.298;2022-12-22T04:19:20;95472.05;;;-2.35;86.28
6096;BME280;25081;42.698;23.298;2022-12-22T04:21:31;95470.26;;;-2.34;86.37
6096;BME280;25081;42.698;23.298;2022-12-22T04:23:41;95466.69;;;-2.33;86.23
6096;BME280;25081;42.698;23.298;2022-12-22T04:25:52;95473.17;;;-2.27;86.64
6096;BME280;25081;42.698;23.298;2022-12-22T04:28:03;95475.11;;;-2.20;86.54
6096;BME280;25081;42.698;23.298;2022-12-22T04:30:14;95476.14;;;-2.17;86.36
6096;BME280;25081;42.698;23.298;2022-12-22T04:32:24;95472.36;;;-2.18;86.08
6096;BME280;25081;42.698;23.298;2022-12-22T04:34:35;95469.61;;;-2.17;86.17
6096;BME280;25081;42.698;23.298;2022-12-22T04:36:45;95468.93;;;-2.19;85.52
6096;BME280;25081;42.698;23.298;2022-12-22T04:38:56;95470.58;;;-2.18;85.13
6096;BME280;25081;42.698;23.298;2022-12-22T04:41:07;95471.92;;;-2.23;85.34
6096;BME280;25081;42.698;23.298;2022-12-22T04:43:17;95471.67;;;-2.20;85.27
6096;BME280;25081;42.698;23.298;2022-12-22T04:45:27;95474.63;;;-2.19;85.28
6096;BME280;25081;42.698;23.298;2022-12-22T04:47:38;95468.78;;;-2.17;85.88
6096;BME280;25081;42.698;23.298;2022-12-22T04:49:48;95472.02;;;-2.19;85.59
6096;BME280;25081;42.698;23.298;2022-12-22T04:51:59;95483.09;;;-2.21;86.11
6096;BME280;25081;42.698;23.298;2022-12-22T04:54:09;95470.90;;;-2.26;85.74
6096;BME280;25081;42.698;23.298;2022-12-22T04:56:20;95470.02;;;-2.31;85.88
6096;BME280;25081;42.698;23.298;2022-12-22T04:58:30;95471.42;;;-2.33;86.36
6096;BME280;25081;42.698;23.298;2022-12-22T05:00:40;95467.13;;;-2.28;86.23
6096;BME280;25081;42.698;23.298;2022-12-22T05:02:51;95466.22;;;-2.23;86.68
6096;BME280;25081;42.698;23.298;2022-12-22T05:05:02;95461.62;;;-2.25;86.07
6096;BME280;25081;42.698;23.298;2022-12-22T05:07:12;95463.06;;;-2.26;86.14
6096;BME280;25081;42.698;23.298;2022-12-22T05:09:23;95458.53;;;-2.24;86.35
6096;BME280;25081;42.698;23.298;2022-12-22T05:11:34;95460.45;;;-2.26;85.52
6096;BME280;25081;42.698;23.298;2022-12-22T05:13:44;95470.62;;;-2.23;86.09
6096;BME280;25081;42.698;23.298;2022-12-22T05:15:55;95464.73;;;-2.16;87.25
6096;BME280;25081;42.698;23.298;2022-12-22T05:18:06;95472.66;;;-2.12;86.33
6096;BME280;25081;42.698;23.298;2022-12-22T05:20:17;95475.38;;;-2.13;86.39
6096;BME280;25081;42.698;23.298;2022-12-22T05:22:27;95472.42;;;-2.14;85.36
6096;BME280;25081;42.698;23.298;2022-12-22T05:24:38;95471.21;;;-2.10;85.28
6096;BME280;25081;42.698;23.298;2022-12-22T05:26:48;95475.88;;;-2.04;85.14
6096;BME280;25081;42.698;23.298;2022-12-22T05:28:58;95477.17;;;-2.04;85.13
6096;BME280;25081;42.698;23.298;2022-12-22T05:31:10;95484.48;;;-1.98;85.57
6096;BME280;25081;42.698;23.298;2022-12-22T05:33:19;95484.42;;;-1.92;85.88
6096;BME280;25081;42.698;23.298;2022-12-22T05:35:30;95484.20;;;-1.95;85.28
6096;BME280;25081;42.698;23.298;2022-12-22T05:37:40;95480.77;;;-1.95;85.31
6096;BME280;25081;42.698;23.298;2022-12-22T05:39:51;95483.70;;;-2.04;85.20
6096;BME280;25081;42.698;23.298;2022-12-22T05:42:01;95479.20;;;-2.02;85.70
6096;BME280;25081;42.698;23.298;2022-12-22T05:44:11;95488.05;;;-1.99;86.64
6096;BME280;25081;42.698;23.298;2022-12-22T05:46:22;95487.30;;;-1.95;86.83
6096;BME280;25081;42.698;23.298;2022-12-22T05:48:32;95476.45;;;-1.91;85.84
6096;BME280;25081;42.698;23.298;2022-12-22T05:50:43;95477.12;;;-1.98;84.97
6096;BME280;25081;42.698;23.298;2022-12-22T05:52:54;95486.95;;;-1.96;85.00
6096;BME280;25081;42.698;23.298;2022-12-22T05:55:05;95476.22;;;-1.93;85.19
6096;BME280;25081;42.698;23.298;2022-12-22T05:57:16;95469.62;;;-1.97;85.74
6096;BME280;25081;42.698;23.298;2022-12-22T05:59:26;95477.41;;;-1.92;86.07
6096;BME280;25081;42.698;23.298;2022-12-22T06:01:37;95481.33;;;-1.92;85.98
6096;BME280;25081;42.698;23.298;2022-12-22T06:03:47;95476.16;;;-1.88;86.47
6096;BME280;25081;42.698;23.298;2022-12-22T06:05:57;95482.16;;;-1.82;85.47
6096;BME280;25081;42.698;23.298;2022-12-22T06:08:08;95479.46;;;-1.76;84.93
6096;BME280;25081;42.698;23.298;2022-12-22T06:10:19;95482.84;;;-1.70;85.78
6096;BME280;25081;42.698;23.298;2022-12-22T06:12:30;95480.42;;;-1.58;85.66
6096;BME280;25081;42.698;23.298;2022-12-22T06:14:40;95479.69;;;-1.54;84.72
6096;BME280;25081;42.698;23.298;2022-12-22T06:16:51;95476.36;;;-1.56;84.16
6096;BME280;25081;42.698;23.298;2022-12-22T06:19:01;95480.22;;;-1.51;84.49
6096;BME280;25081;42.698;23.298;2022-12-22T06:21:12;95481.09;;;-1.46;83.89
6096;BME280;25081;42.698;23.298;2022-12-22T06:23:22;95481.23;;;-1.38;83.54
6096;BME280;25081;42.698;23.298;2022-12-22T06:25:32;95477.77;;;-1.29;84.16
6096;BME280;25081;42.698;23.298;2022-12-22T06:27:43;95484.63;;;-1.18;83.86
6096;BME280;25081;42.698;23.298;2022-12-22T06:29:53;95484.95;;;-1.07;84.35
6096;BME280;25081;42.698;23.298;2022-12-22T06:32:05;95486.14;;;-1.06;84.04
6096;BME280;25081;42.698;23.298;2022-12-22T06:34:15;95485.22;;;-1.01;82.62
6096;BME280;25081;42.698;23.298;2022-12-22T06:36:26;95494.49;;;-0.93;82.69
6096;BME280;25081;42.698;23.298;2022-12-22T06:38:36;95481.87;;;-0.83;82.59
6096;BME280;25081;42.698;23.298;2022-12-22T06:40:48;95493.95;;;-0.73;82.95
6096;BME280;25081;42.698;23.298;2022-12-22T06:42:58;95488.52;;;-0.62;81.77
6096;BME280;25081;42.698;23.298;2022-12-22T06:45:18;95488.97;;;-0.52;80.71
6096;BME280;25081;42.698;23.298;2022-12-22T06:47:28;95493.15;;;-0.46;82.28
6096;BME280;25081;42.698;23.298;2022-12-22T06:49:38;95490.72;;;-0.43;80.16
6096;BME280;25081;42.698;23.298;2022-12-22T06:51:50;95494.52;;;-0.28;79.66
6096;BME280;25081;42.698;23.298;2022-12-22T06:54:00;95495.06;;;0.82;76.96
6096;BME280;25081;42.698;23.298;2022-12-22T06:56:11;95482.14;;;2.58;70.63
6096;BME280;25081;42.698;23.298;2022-12-22T06:58:21;95476.42;;;4.29;64.67
6096;BME280;25081;42.698;23.298;2022-12-22T07:00:32;95470.47;;;5.33;59.77
6096;BME280;25081;42.698;23.298;2022-12-22T07:02:42;95469.65;;;6.32;58.24
6096;BME280;25081;42.698;23.298;2022-12-22T07:04:52;95475.55;;;7.30;54.52
6096;BME280;25081;42.698;23.298;2022-12-22T07:07:03;95473.02;;;7.78;53.39
6096;BME280;25081;42.698;23.298;2022-12-22T07:09:13;95471.73;;;8.50;51.16
6096;BME280;25081;42.698;23.298;2022-12-22T07:11:24;95473.36;;;9.14;48.98
6096;BME280;25081;42.698;23.298;2022-12-22T07:13:34;95466.90;;;9.53;45.61
6096;BME280;25081;42.698;23.298;2022-12-22T07:15:45;95464.06;;;9.48;44.90
6096;BME280;25081;42.698;23.298;2022-12-22T07:17:55;95467.34;;;9.36;44.63
6096;BME280;25081;42.698;23.298;2022-12-22T07:20:07;95478.94;;;7.97;46.83
6096;BME280;25081;42.698;23.298;2022-12-22T07:22:18;95470.84;;;7.54;48.38
6096;BME280;25081;42.698;23.298;2022-12-22T07:24:28;95473.12;;;7.98;47.78
6096;BME280;25081;42.698;23.298;2022-12-22T07:26:39;95468.84;;;8.21;47.05
6096;BME280;25081;42.698;23.298;2022-12-22T07:28:50;95471.99;;;7.96;47.37
6096;BME280;25081;42.698;23.298;2022-12-22T07:31:00;95473.58;;;7.84;47.97
6096;BME280;25081;42.698;23.298;2022-12-22T07:33:10;95464.38;;;8.04;47.48
6096;BME280;25081;42.698;23.298;2022-12-22T07:35:21;95464.63;;;8.70;46.47
6096;BME280;25081;42.698;23.298;2022-12-22T07:37:31;95464.20;;;8.67;45.46
6096;BME280;25081;42.698;23.298;2022-12-22T07:39:42;95467.94;;;8.24;47.15
6096;BME280;25081;42.698;23.298;2022-12-22T07:41:52;95467.67;;;8.60;45.54
6096;BME280;25081;42.698;23.298;2022-12-22T07:44:21;95461.56;;;8.36;46.28
6096;BME280;25081;42.698;23.298;2022-12-22T07:46:32;95465.39;;;9.48;44.04
6096;BME280;25081;42.698;23.298;2022-12-22T07:48:42;95461.78;;;10.58;41.85
6096;BME280;25081;42.698;23.298;2022-12-22T07:51:10;95464.59;;;11.76;39.94
6096;BME280;25081;42.698;23.298;2022-12-22T07:53:20;95460.47;;;12.44;37.11
6096;BME280;25081;42.698;23.298;2022-12-22T07:55:33;95465.40;;;12.20;37.65
6096;BME280;25081;42.698;23.298;2022-12-22T07:57:41;95466.89;;;11.97;37.62
6096;BME280;25081;42.698;23.298;2022-12-22T07:59:52;95462.20;;;12.02;37.99
6096;BME280;25081;42.698;23.298;2022-12-22T08:02:02;95457.89;;;11.92;37.80
6096;BME280;25081;42.698;23.298;2022-12-22T08:04:13;95455.64;;;12.44;36.99
6096;BME280;25081;42.698;23.298;2022-12-22T08:06:23;95449.05;;;12.76;36.46
6096;BME280;25081;42.698;23.298;2022-12-22T08:08:34;95443.69;;;13.27;36.09
6096;BME280;25081;42.698;23.298;2022-12-22T08:10:44;95446.98;;;13.64;36.50
6096;BME280;25081;42.698;23.298;2022-12-22T08:12:55;95442.73;;;14.01;34.10
6096;BME280;25081;42.698;23.298;2022-12-22T08:15:08;95443.80;;;14.66;32.94
6096;BME280;25081;42.698;23.298;2022-12-22T08:17:18;95442.56;;;13.82;33.76
6096;BME280;25081;42.698;23.298;2022-12-22T08:19:28;95450.70;;;14.48;34.11
6096;BME280;25081;42.698;23.298;2022-12-22T08:21:39;95442.83;;;15.32;31.71
6096;BME280;25081;42.698;23.298;2022-12-22T08:23:49;95435.75;;;15.73;31.59
6096;BME280;25081;42.698;23.298;2022-12-22T08:26:01;95432.62;;;15.31;31.21
6096;BME280;25081;42.698;23.298;2022-12-22T08:28:10;95443.88;;;15.62;32.66
6096;BME280;25081;42.698;23.298;2022-12-22T08:30:21;95440.94;;;16.19;30.60
6096;BME280;25081;42.698;23.298;2022-12-22T08:32:31;95441.92;;;16.73;30.88
6096;BME280;25081;42.698;23.298;2022-12-22T08:34:42;95440.19;;;16.73;30.88
6096;BME280;25081;42.698;23.298;2022-12-22T08:36:54;95438.47;;;17.05;29.38
6096;BME280;25081;42.698;23.298;2022-12-22T08:39:04;95438.47;;;17.05;29.38
6096;BME280;25081;42.698;23.298;2022-12-22T08:41:14;95436.48;;;17.20;28.15
6096;BME280;25081;42.698;23.298;2022-12-22T08:43:25;95434.23;;;16.84;30.98
6096;BME280;25081;42.698;23.298;2022-12-22T08:45:35;95427.72;;;17.07;28.39
6096;BME280;25081;42.698;23.298;2022-12-22T08:47:46;95425.08;;;17.42;28.85
6096;BME280;25081;42.698;23.298;2022-12-22T08:49:56;95420.50;;;17.42;28.70
6096;BME280;25081;42.698;23.298;2022-12-22T08:52:06;95416.51;;;17.48;28.25
6096;BME280;25081;42.698;23.298;2022-12-22T08:54:17;95418.86;;;17.71;28.68
6096;BME280;25081;42.698;23.298;2022-12-22T08:56:28;95419.41;;;17.09;29.21
6096;BME280;25081;42.698;23.298;2022-12-22T08:58:38;95417.52;;;17.09;29.40
6096;BME280;25081;42.698;23.298;2022-12-22T09:00:49;95420.17;;;17.07;29.48
6096;BME280;25081;42.698;23.298;2022-12-22T09:02:59;95414.30;;;17.10;28.24
6096;BME280;25081;42.698;23.298;2022-12-22T09:05:10;95408.62;;;17.41;28.78
6096;BME280;25081;42.698;23.298;2022-12-22T09:07:20;95408.03;;;15.23;30.04
6096;BME280;25081;42.698;23.298;2022-12-22T09:09:32;95400.62;;;16.68;30.12
6096;BME280;25081;42.698;23.298;2022-12-22T09:11:42;95398.81;;;16.27;30.39
6096;BME280;25081;42.698;23.298;2022-12-22T09:13:53;95393.12;;;17.26;29.08
6096;BME280;25081;42.698;23.298;2022-12-22T09:16:05;95393.14;;;17.98;27.46
6096;BME280;25081;42.698;23.298;2022-12-22T09:18:16;95380.06;;;18.29;27.41
6096;BME280;25081;42.698;23.298;2022-12-22T09:20:26;95387.39;;;18.34;27.12
6096;BME280;25081;42.698;23.298;2022-12-22T09:22:37;95375.88;;;18.64;27.30
6096;BME280;25081;42.698;23.298;2022-12-22T09:24:47;95373.49;;;18.80;26.78
6096;BME280;25081;42.698;23.298;2022-12-22T09:26:57;95368.22;;;18.41;27.21
6096;BME280;25081;42.698;23.298;2022-12-22T09:29:08;95369.91;;;18.59;26.84
6096;BME280;25081;42.698;23.298;2022-12-22T09:31:18;95371.64;;;18.99;26.33
6096;BME280;25081;42.698;23.298;2022-12-22T09:33:29;95371.92;;;19.07;25.57
6096;BME280;25081;42.698;23.298;2022-12-22T09:35:41;95367.03;;;18.89;26.11
6096;BME280;25081;42.698;23.298;2022-12-22T09:37:52;95372.20;;;19.06;25.96
6096;BME280;25081;42.698;23.298;2022-12-22T09:40:03;95379.89;;;18.62;25.69
6096;BME280;25081;42.698;23.298;2022-12-22T09:42:14;95378.46;;;17.46;27.03
6096;BME280;25081;42.698;23.298;2022-12-22T09:44:25;95375.08;;;17.27;28.56
6096;BME280;25081;42.698;23.298;2022-12-22T09:46:35;95368.22;;;17.81;27.90
6096;BME280;25081;42.698;23.298;2022-12-22T09:48:46;95372.13;;;16.69;27.95
6096;BME280;25081;42.698;23.298;2022-12-22T09:50:56;95373.55;;;16.30;29.67
6096;BME280;25081;42.698;23.298;2022-12-22T09:53:07;95374.43;;;16.12;29.70
6096;BME280;25081;42.698;23.298;2022-12-22T09:55:24;95365.88;;;16.17;29.98
6096;BME280;25081;42.698;23.298;2022-12-22T09:57:30;95361.70;;;16.29;29.35
6096;BME280;25081;42.698;23.298;2022-12-22T09:59:40;95369.38;;;10.77;37.47
6096;BME280;25081;42.698;23.298;2022-12-22T10:02:04;95369.38;;;10.77;37.47
6096;BME280;25081;42.698;23.298;2022-12-22T10:04:15;95371.61;;;8.70;42.58
6096;BME280;25081;42.698;23.298;2022-12-22T10:06:28;95364.51;;;8.10;45.34
6096;BME280;25081;42.698;23.298;2022-12-22T10:08:35;95371.17;;;8.16;45.34
6096;BME280;25081;42.698;23.298;2022-12-22T10:10:45;95358.97;;;7.98;46.61
6096;BME280;25081;42.698;23.298;2022-12-22T10:12:56;95358.19;;;7.73;48.01
6096;BME280;25081;42.698;23.298;2022-12-22T10:15:10;95356.45;;;7.77;48.03
6096;BME280;25081;42.698;23.298;2022-12-22T10:19:39;95343.32;;;7.38;49.79
6096;BME280;25081;42.698;23.298;2022-12-22T10:21:49;95343.47;;;7.12;50.51
6096;BME280;25081;42.698;23.298;2022-12-22T10:24:00;95341.77;;;6.98;50.91
6096;BME280;25081;42.698;23.298;2022-12-22T10:26:11;95336.30;;;6.89;51.31
6096;BME280;25081;42.698;23.298;2022-12-22T10:28:22;95328.83;;;6.71;50.41
6096;BME280;25081;42.698;23.298;2022-12-22T10:30:34;95326.39;;;5.59;53.21
6096;BME280;25081;42.698;23.298;2022-12-22T10:32:43;95335.39;;;4.99;55.41
6096;BME280;25081;42.698;23.298;2022-12-22T10:35:00;95326.23;;;5.20;56.76
6096;BME280;25081;42.698;23.298;2022-12-22T10:37:10;95327.27;;;5.70;56.44
6096;BME280;25081;42.698;23.298;2022-12-22T10:39:21;95318.56;;;6.01;54.18
6096;BME280;25081;42.698;23.298;2022-12-22T10:41:34;95324.16;;;6.13;54.18
6096;BME280;25081;42.698;23.298;2022-12-22T10:43:46;95313.58;;;6.63;54.36
6096;BME280;25081;42.698;23.298;2022-12-22T10:45:56;95300.41;;;7.45;51.09
6096;BME280;25081;42.698;23.298;2022-12-22T10:48:07;95297.40;;;8.69;48.10
6096;BME280;25081;42.698;23.298;2022-12-22T10:50:17;95288.30;;;9.52;45.48
6096;BME280;25081;42.698;23.298;2022-12-22T10:52:28;95291.65;;;10.17;44.67
6096;BME280;25081;42.698;23.298;2022-12-22T10:54:38;95288.85;;;10.77;42.50
6096;BME280;25081;42.698;23.298;2022-12-22T10:56:57;95287.94;;;11.08;41.76
6096;BME280;25081;42.698;23.298;2022-12-22T10:59:15;95277.80;;;11.44;40.90
6096;BME280;25081;42.698;23.298;2022-12-22T11:01:26;95276.82;;;11.85;40.18
6096;BME280;25081;42.698;23.298;2022-12-22T11:03:35;95276.24;;;11.83;39.98
6096;BME280;25081;42.698;23.298;2022-12-22T11:05:46;95270.53;;;11.88;39.67
6096;BME280;25081;42.698;23.298;2022-12-22T11:07:56;95269.23;;;12.00;39.63
6096;BME280;25081;42.698;23.298;2022-12-22T11:10:18;95269.49;;;11.62;39.88
6096;BME280;25081;42.698;23.298;2022-12-22T11:12:32;95264.00;;;11.38;40.43
6096;BME280;25081;42.698;23.298;2022-12-22T11:14:43;95266.15;;;11.48;40.14
6096;BME280;25081;42.698;23.298;2022-12-22T11:16:54;95262.81;;;11.71;40.71
6096;BME280;25081;42.698;23.298;2022-12-22T11:19:09;95253.99;;;11.61;39.45
6096;BME280;25081;42.698;23.298;2022-12-22T11:21:20;95251.22;;;11.86;40.16
6096;BME280;25081;42.698;23.298;2022-12-22T11:23:35;95259.11;;;11.63;40.38
6096;BME280;25081;42.698;23.298;2022-12-22T11:25:48;95254.52;;;11.52;40.63
6096;BME280;25081;42.698;23.298;2022-12-22T11:28:04;95251.28;;;11.40;40.96
6096;BME280;25081;42.698;23.298;2022-12-22T11:30:13;95256.45;;;11.44;41.28
6096;BME280;25081;42.698;23.298;2022-12-22T11:32:30;95249.12;;;11.31;41.22
6096;BME280;25081;42.698;23.298;2022-12-22T11:34:46;95247.80;;;10.35;42.85
6096;BME280;25081;42.698;23.298;2022-12-22T11:37:03;95100.41;;;8.68;43.36
6096;BME280;25081;42.698;23.298;2022-12-22T11:39:13;95249.66;;;8.31;47.10
6096;BME280;25081;42.698;23.298;2022-12-22T11:41:33;95249.41;;;8.86;47.04
6096;BME280;25081;42.698;23.298;2022-12-22T11:43:48;95252.31;;;8.71;47.59
6096;BME280;25081;42.698;23.298;2022-12-22T11:49:12;95241.42;;;9.28;46.66
6096;BME280;25081;42.698;23.298;2022-12-22T11:51:25;95243.64;;;9.09;47.54
6096;BME280;25081;42.698;23.298;2022-12-22T11:53:59;95241.50;;;9.02;46.52
6096;BME280;25081;42.698;23.298;2022-12-22T11:56:17;95243.58;;;8.86;47.36
6096;BME280;25081;42.698;23.298;2022-12-22T11:58:37;95240.75;;;8.28;47.55
6096;BME280;25081;42.698;23.298;2022-12-22T12:00:47;95241.24;;;7.82;48.98
6096;BME280;25081;42.698;23.298;2022-12-22T12:03:34;95234.95;;;8.22;61.07
6096;BME280;25081;42.698;23.298;2022-12-22T12:05:51;95235.66;;;9.38;61.98
6096;BME280;25081;42.698;23.298;2022-12-22T12:08:01;95224.30;;;11.03;57.89
6096;BME280;25081;42.698;23.298;2022-12-22T12:10:16;95221.66;;;11.99;51.16